Time;durP1;ratioP1;P1;durP2;ratioP2;P2;SDS_P1;SDS_P2;PMS_P1;PMS_P2;Temp;Humidity;BMP_temperature;BMP_pressure;BME280_temperature;BME280_humidity;BME280_pressure;Samples;Min_cycle;Max_cycle;Signal;HPM_P1;HPM_P2
2021/06/16 00:02:25;;;;;;;;;;;20.70;70.20;;;;;;5034318;28;1091;-71
2021/06/16 00:04:50;;;;;;;;;;;20.70;70.20;;;;;;5034528;28;1119;-72
2021/06/16 00:07:16;;;;;;;;;;;20.70;70.20;;;;;;5034919;28;1306;-72
2021/06/16 00:09:41;;;;;;;;;;;20.70;70.20;;;;;;5033572;28;1222;-71
2021/06/16 00:12:07;;;;;;;;;;;20.70;70.20;;;;;;5034897;28;1103;-72
2021/06/16 00:14:33;;;;;;;;;;;20.60;70.00;;;;;;5033037;28;1096;-72
2021/06/16 00:16:58;;;;;;;;;;;20.70;70.10;;;;;;5033436;28;1261;-73
2021/06/16 00:19:23;;;;;;;;;;;20.70;70.10;;;;;;5032806;28;1902;-73
2021/06/16 00:21:49;;;;;;;;;;;20.60;70.00;;;;;;5034348;28;1496;-74
2021/06/16 00:24:18;;;;;;;;;;;20.70;70.10;;;;;;5034005;28;1056;-73
2021/06/16 00:26:44;;;;;;;;;;;20.60;70.00;;;;;;5034383;28;1253;-73
2021/06/16 00:29:09;;;;;;;;;;;20.70;70.00;;;;;;5013362;28;1104;-74
2021/06/16 00:31:35;;;;;;;;;;;20.70;70.00;;;;;;5025029;28;1076;-73
2021/06/16 00:34:00;;;;;;;;;;;20.70;70.00;;;;;;5033341;28;1138;-74
2021/06/16 00:36:26;;;;;;;;;;;20.70;70.00;;;;;;5032266;28;1084;-75
2021/06/16 00:38:51;;;;;;;;;;;20.60;69.80;;;;;;5031869;28;1980;-74
2021/06/16 00:41:17;;;;;;;;;;;20.70;69.90;;;;;;5033565;28;1055;-74
2021/06/16 00:43:42;;;;;;;;;;;20.70;69.90;;;;;;5015214;28;1163;-74
2021/06/16 00:46:07;;;;;;;;;;;20.60;69.80;;;;;;5033365;28;1075;-75
2021/06/16 00:48:33;;;;;;;;;;;20.60;69.80;;;;;;5033134;28;1355;-76
2021/06/16 00:50:58;;;;;;;;;;;20.60;69.80;;;;;;5033108;28;1055;-74
2021/06/16 00:53:24;;;;;;;;;;;20.60;69.70;;;;;;5032946;28;1206;-75
2021/06/16 00:55:49;;;;;;;;;;;20.60;69.70;;;;;;5033091;28;1146;-75
2021/06/16 00:58:15;;;;;;;;;;;20.70;69.80;;;;;;5032817;28;1954;-75
2021/06/16 01:00:42;;;;;;;;;;;20.60;69.70;;;;;;5011995;28;1189;-76
2021/06/16 01:03:20;;;;;;;;;;;20.60;69.70;;;;;;5028310;28;1093;-75
2021/06/16 01:05:57;;;;;;;;;;;20.60;69.60;;;;;;5031778;28;1115;-73
2021/06/16 01:08:27;;;;;;;;;;;20.60;69.60;;;;;;5031622;28;1302;-71
2021/06/16 01:10:52;;;;;;;;;;;20.70;69.70;;;;;;5032858;28;1087;-72
2021/06/16 01:13:20;;;;;;;;;;;20.60;69.60;;;;;;5031318;28;1077;-73
2021/06/16 01:15:47;;;;;;;;;;;20.70;69.60;;;;;;5019372;28;1059;-73
2021/06/16 01:18:13;;;;;;;;;;;20.70;69.60;;;;;;5031665;28;1906;-73
2021/06/16 01:20:42;;;;;;;;;;;20.60;69.50;;;;;;5031471;28;1112;-73
2021/06/16 01:23:07;;;;;;;;;;;20.60;69.50;;;;;;5031459;28;1151;-72
2021/06/16 01:25:33;;;;;;;;;;;20.70;70.30;;;;;;5032725;28;1115;-73
2021/06/16 01:27:58;;;;;;;;;;;20.70;69.50;;;;;;5032588;28;1234;-73
2021/06/16 01:30:24;;;;;;;;;;;20.60;69.50;;;;;;5012253;28;1415;-73
2021/06/16 01:32:49;;;;;;;;;;;20.70;69.50;;;;;;5031390;28;1101;-71
2021/06/16 01:35:14;;;;;;;;;;;20.60;69.40;;;;;;5032771;28;1059;-73
2021/06/16 01:37:40;;;;;;;;;;;20.60;69.40;;;;;;5034914;28;1365;-72
2021/06/16 01:40:06;;;;;;;;;;;20.70;69.50;;;;;;5035283;28;1910;-72
2021/06/16 01:42:31;;;;;;;;;;;20.70;69.50;;;;;;5035241;28;1252;-73
2021/06/16 01:44:57;;;;;;;;;;;20.70;69.40;;;;;;5034936;28;1135;-73
2021/06/16 01:47:22;;;;;;;;;;;20.60;69.40;;;;;;5035242;28;1303;-74
2021/06/16 01:49:48;;;;;;;;;;;20.60;69.30;;;;;;5035138;28;1143;-75
2021/06/16 01:52:13;;;;;;;;;;;20.60;69.30;;;;;;5035323;28;1112;-75
2021/06/16 01:54:39;;;;;;;;;;;20.60;69.30;;;;;;5034901;28;1080;-75
2021/06/16 01:57:04;;;;;;;;;;;20.60;69.30;;;;;;5036174;28;1350;-75
2021/06/16 01:59:30;;;;;;;;;;;20.70;69.30;;;;;;5035233;28;1935;-72
2021/06/16 02:01:55;;;;;;;;;;;20.70;69.20;;;;;;5034963;28;1199;-73
2021/06/16 02:04:21;;;;;;;;;;;20.70;69.30;;;;;;5035925;28;1127;-73
2021/06/16 02:06:47;;;;;;;;;;;20.70;69.20;;;;;;5036050;28;1264;-73
2021/06/16 02:09:13;;;;;;;;;;;20.60;69.10;;;;;;5034951;28;1104;-73
2021/06/16 02:11:38;;;;;;;;;;;20.70;69.20;;;;;;5034688;28;1139;-73
2021/06/16 02:14:05;;;;;;;;;;;20.60;69.10;;;;;;5035989;28;1067;-73
2021/06/16 02:16:41;;;;;;;;;;;20.70;69.20;;;;;;5034770;28;1222;-72
2021/06/16 02:19:16;;;;;;;;;;;20.60;69.10;;;;;;5015957;28;1906;-73
2021/06/16 02:21:42;;;;;;;;;;;20.60;69.10;;;;;;5034797;28;1119;-73
2021/06/16 02:24:07;;;;;;;;;;;20.60;69.00;;;;;;5029337;28;1268;-72
2021/06/16 02:26:33;;;;;;;;;;;20.60;69.00;;;;;;5027417;28;1302;-72
2021/06/16 02:28:58;;;;;;;;;;;20.60;69.00;;;;;;5026179;28;1316;-73
2021/06/16 02:31:24;;;;;;;;;;;20.60;69.00;;;;;;5027669;28;1236;-73
2021/06/16 02:33:50;;;;;;;;;;;20.60;69.00;;;;;;5029135;28;1662;-74
2021/06/16 02:36:15;;;;;;;;;;;20.70;69.10;;;;;;5029872;28;1239;-74
2021/06/16 02:38:41;;;;;;;;;;;20.70;69.10;;;;;;5029189;28;1910;-73
2021/06/16 02:41:06;;;;;;;;;;;20.60;69.00;;;;;;5029030;28;1338;-74
2021/06/16 02:43:33;;;;;;;;;;;20.60;69.00;;;;;;5027017;28;1286;-73
2021/06/16 02:45:58;;;;;;;;;;;20.60;69.00;;;;;;5011976;28;1261;-73
2021/06/16 02:48:23;;;;;;;;;;;20.60;69.00;;;;;;5033941;28;1421;-73
2021/06/16 02:50:49;;;;;;;;;;;20.60;69.00;;;;;;5034175;28;1171;-73
2021/06/16 02:53:17;;;;;;;;;;;20.60;68.90;;;;;;5035455;28;1641;-73
2021/06/16 02:55:43;;;;;;;;;;;20.60;68.90;;;;;;5035320;28;1127;-73
2021/06/16 02:58:09;;;;;;;;;;;20.60;68.90;;;;;;5033941;28;1906;-73
2021/06/16 03:00:34;;;;;;;;;;;20.60;68.90;;;;;;5033682;28;1562;-73
2021/06/16 03:03:00;;;;;;;;;;;20.60;68.90;;;;;;5032949;28;1120;-73
2021/06/16 03:05:25;;;;;;;;;;;20.60;68.90;;;;;;5033483;28;1134;-73
2021/06/16 03:07:51;;;;;;;;;;;20.60;68.80;;;;;;5034335;28;1335;-73
2021/06/16 03:10:17;;;;;;;;;;;20.60;68.80;;;;;;5034450;28;1056;-73
2021/06/16 03:12:42;;;;;;;;;;;20.60;68.80;;;;;;5033143;28;1143;-73
2021/06/16 03:15:08;;;;;;;;;;;20.60;68.80;;;;;;5025554;28;1201;-73
2021/06/16 03:17:33;;;;;;;;;;;20.60;68.70;;;;;;5029776;28;1343;-73
2021/06/16 03:19:59;;;;;;;;;;;20.60;68.80;;;;;;5033635;28;1894;-73
2021/06/16 03:22:24;;;;;;;;;;;20.60;68.70;;;;;;5033469;28;1064;-73
2021/06/16 03:24:50;;;;;;;;;;;20.60;68.70;;;;;;5033250;28;1171;-73
2021/06/16 03:27:15;;;;;;;;;;;20.60;68.60;;;;;;5034543;28;1264;-73
2021/06/16 03:29:40;;;;;;;;;;;20.60;68.60;;;;;;5033478;28;1128;-73
2021/06/16 03:32:07;;;;;;;;;;;20.60;68.60;;;;;;5034405;28;1111;-73
2021/06/16 03:34:34;;;;;;;;;;;20.60;68.60;;;;;;5033432;28;1162;-73
2021/06/16 03:36:59;;;;;;;;;;;20.60;68.60;;;;;;5032948;28;1267;-73
2021/06/16 03:39:25;;;;;;;;;;;20.60;68.60;;;;;;5034856;28;1961;-73
2021/06/16 03:41:50;;;;;;;;;;;20.60;68.60;;;;;;5033252;28;1195;-73
2021/06/16 03:44:16;;;;;;;;;;;20.60;68.50;;;;;;5033011;28;1072;-73
2021/06/16 03:46:41;;;;;;;;;;;20.60;68.50;;;;;;5034124;28;1215;-73
2021/06/16 03:49:08;;;;;;;;;;;20.60;68.50;;;;;;5033174;28;1123;-73
2021/06/16 03:51:33;;;;;;;;;;;20.60;68.50;;;;;;5032944;28;1096;-73
2021/06/16 03:53:59;;;;;;;;;;;20.60;68.50;;;;;;5033788;28;1071;-73
2021/06/16 03:56:24;;;;;;;;;;;20.60;68.50;;;;;;5032869;28;1069;-73
2021/06/16 03:58:52;;;;;;;;;;;20.60;68.50;;;;;;5033964;28;1894;-73
2021/06/16 04:01:18;;;;;;;;;;;20.60;68.50;;;;;;5033399;28;1111;-73
2021/06/16 04:03:43;;;;;;;;;;;20.60;68.50;;;;;;5032786;28;1131;-73
2021/06/16 04:06:09;;;;;;;;;;;20.60;68.40;;;;;;5032634;28;1123;-73
2021/06/16 04:08:35;;;;;;;;;;;20.60;68.40;;;;;;5032530;28;1264;-73
2021/06/16 04:11:01;;;;;;;;;;;20.60;68.40;;;;;;5032603;28;1120;-73
2021/06/16 04:13:26;;;;;;;;;;;20.60;68.40;;;;;;5033579;28;1103;-74
2021/06/16 04:15:52;;;;;;;;;;;20.60;68.40;;;;;;5032367;28;1226;-75
2021/06/16 04:18:17;;;;;;;;;;;20.60;68.10;;;;;;5032401;28;1891;-76
2021/06/16 04:20:42;;;;;;;;;;;20.60;62.60;;;;;;5032329;28;1120;-75
2021/06/16 04:23:08;;;;;;;;;;;20.50;59.10;;;;;;5033240;28;1068;-74
2021/06/16 04:25:33;;;;;;;;;;;20.50;59.20;;;;;;5032610;28;1426;-74
2021/06/16 04:27:59;;;;;;;;;;;20.50;61.00;;;;;;5032457;28;1220;-75
2021/06/16 04:30:24;;;;;;;;;;;20.50;63.30;;;;;;5033303;28;1130;-75
2021/06/16 04:32:50;;;;;;;;;;;20.50;64.20;;;;;;5033334;28;1142;-74
2021/06/16 04:35:15;;;;;;;;;;;20.50;64.80;;;;;;5032143;28;1155;-74
2021/06/16 04:37:41;;;;;;;;;;;20.50;64.90;;;;;;5033107;28;1207;-75
2021/06/16 04:40:06;;;;;;;;;;;20.50;64.20;;;;;;5021573;28;1914;-71
2021/06/16 04:42:32;;;;;;;;;;;20.50;64.90;;;;;;5018775;28;1875;-73
2021/06/16 04:44:57;;;;;;;;;;;20.50;64.60;;;;;;5030946;28;1223;-74
2021/06/16 04:47:23;;;;;;;;;;;20.50;64.00;;;;;;5030788;28;1301;-74
2021/06/16 04:49:48;;;;;;;;;;;20.50;64.60;;;;;;5031148;28;1143;-74
2021/06/16 04:52:13;;;;;;;;;;;20.50;64.80;;;;;;5030741;28;1163;-75
2021/06/16 04:54:39;;;;;;;;;;;20.50;64.20;;;;;;5030633;28;1132;-74
2021/06/16 04:57:05;;;;;;;;;;;20.50;64.00;;;;;;5031668;28;1350;-75
2021/06/16 04:59:33;;;;;;;;;;;20.50;64.70;;;;;;5032035;28;1906;-75
2021/06/16 05:01:59;;;;;;;;;;;20.50;64.20;;;;;;5030802;28;1166;-75
2021/06/16 05:04:25;;;;;;;;;;;20.50;63.60;;;;;;5030900;28;1068;-74
2021/06/16 05:06:50;;;;;;;;;;;20.50;63.90;;;;;;5030570;28;1295;-71
2021/06/16 05:09:16;;;;;;;;;;;20.50;63.40;;;;;;5031520;28;1322;-73
2021/06/16 05:11:41;;;;;;;;;;;20.50;64.00;;;;;;5032274;28;1375;-72
2021/06/16 05:14:06;;;;;;;;;;;20.50;63.90;;;;;;5033523;28;1804;-71
2021/06/16 05:16:35;;;;;;;;;;;20.50;63.70;;;;;;5020134;28;947;-71
2021/06/16 05:19:00;;;;;;;;;;;20.50;64.00;;;;;;5032882;28;1975;-72
2021/06/16 05:21:26;;;;;;;;;;;20.50;63.10;;;;;;5032583;28;1166;-72
2021/06/16 05:23:51;;;;;;;;;;;20.50;63.70;;;;;;5031336;28;1104;-72
2021/06/16 05:26:17;;;;;;;;;;;20.50;63.00;;;;;;5031784;28;1325;-72
2021/06/16 05:28:42;;;;;;;;;;;20.50;62.50;;;;;;5032675;28;1294;-72
2021/06/16 05:31:09;;;;;;;;;;;20.50;62.80;;;;;;5032654;28;1159;-72
2021/06/16 05:33:35;;;;;;;;;;;20.50;62.70;;;;;;5032685;28;1111;-72
2021/06/16 05:36:00;;;;;;;;;;;20.50;62.50;;;;;;5032793;28;1079;-72
2021/06/16 05:38:26;;;;;;;;;;;20.50;61.70;;;;;;5032413;28;1973;-72
2021/06/16 05:40:51;;;;;;;;;;;20.50;61.60;;;;;;5031534;28;1064;-71
2021/06/16 05:43:16;;;;;;;;;;;20.50;61.10;;;;;;5032478;28;1134;-71
2021/06/16 05:45:42;;;;;;;;;;;20.50;62.80;;;;;;5031420;28;1191;-72
2021/06/16 05:48:07;;;;;;;;;;;20.50;63.20;;;;;;5031597;28;1357;-71
2021/06/16 05:50:33;;;;;;;;;;;20.50;63.20;;;;;;5035040;28;1076;-71
2021/06/16 05:52:58;;;;;;;;;;;20.50;63.00;;;;;;5035347;28;1084;-71
2021/06/16 05:55:24;;;;;;;;;;;20.50;62.40;;;;;;5034084;28;1178;-71
2021/06/16 05:57:49;;;;;;;;;;;20.50;62.30;;;;;;5033893;28;1346;-71
2021/06/16 06:00:15;;;;;;;;;;;20.50;62.60;;;;;;5034019;28;1902;-71
2021/06/16 06:02:41;;;;;;;;;;;20.50;62.40;;;;;;5033466;28;1072;-71
2021/06/16 06:05:06;;;;;;;;;;;20.50;63.00;;;;;;5032514;28;1060;-71
2021/06/16 06:07:32;;;;;;;;;;;20.50;62.70;;;;;;5032786;28;1377;-71
2021/06/16 06:09:57;;;;;;;;;;;20.50;63.20;;;;;;5033224;28;1083;-71
2021/06/16 06:12:22;;;;;;;;;;;20.50;63.30;;;;;;5033797;28;1171;-71
2021/06/16 06:14:48;;;;;;;;;;;20.50;63.00;;;;;;5032948;28;1070;-71
2021/06/16 06:17:13;;;;;;;;;;;20.50;63.40;;;;;;5033475;28;1275;-71
2021/06/16 06:19:39;;;;;;;;;;;20.50;62.70;;;;;;5033341;28;1902;-71
2021/06/16 06:22:04;;;;;;;;;;;20.50;62.80;;;;;;5033213;28;1159;-71
2021/06/16 06:24:30;;;;;;;;;;;20.50;62.80;;;;;;5035968;28;1123;-71
2021/06/16 06:26:55;;;;;;;;;;;20.50;63.30;;;;;;5037442;28;1221;-71
2021/06/16 06:29:22;;;;;;;;;;;20.50;63.10;;;;;;5035875;28;1135;-70
2021/06/16 06:31:47;;;;;;;;;;;20.50;63.10;;;;;;5036410;28;1083;-72
2021/06/16 06:34:13;;;;;;;;;;;20.50;63.30;;;;;;5035989;28;1099;-72
2021/06/16 06:36:38;;;;;;;;;;;20.50;63.10;;;;;;5035225;28;1132;-72
2021/06/16 06:39:04;;;;;;;;;;;20.50;63.00;;;;;;5036606;28;1973;-72
2021/06/16 06:41:29;;;;;;;;;;;20.50;62.80;;;;;;5036827;28;882;-72
2021/06/16 06:43:55;;;;;;;;;;;20.50;63.30;;;;;;5035587;28;1130;-74
2021/06/16 06:46:20;;;;;;;;;;;20.50;63.30;;;;;;5034554;28;1096;-74
2021/06/16 06:48:45;;;;;;;;;;;20.50;63.30;;;;;;5035584;28;1334;-73
2021/06/16 06:51:11;;;;;;;;;;;20.50;62.90;;;;;;5028126;28;1448;-73
2021/06/16 06:53:36;;;;;;;;;;;20.50;63.30;;;;;;5034760;28;1138;-73
2021/06/16 06:56:02;;;;;;;;;;;20.50;63.80;;;;;;5035148;28;1124;-72
2021/06/16 06:58:29;;;;;;;;;;;20.50;63.70;;;;;;5034786;28;1906;-72
2021/06/16 07:00:54;;;;;;;;;;;20.50;64.00;;;;;;5033893;28;1096;-72
2021/06/16 07:03:19;;;;;;;;;;;20.50;64.00;;;;;;5034595;28;1107;-73
2021/06/16 07:05:45;;;;;;;;;;;20.50;63.80;;;;;;5033770;28;1135;-73
2021/06/16 07:08:10;;;;;;;;;;;20.50;63.50;;;;;;5034746;28;1347;-73
2021/06/16 07:10:36;;;;;;;;;;;20.50;62.80;;;;;;5035137;28;1052;-73
2021/06/16 07:13:03;;;;;;;;;;;20.50;63.20;;;;;;5034620;28;1095;-73
2021/06/16 07:15:29;;;;;;;;;;;20.50;62.40;;;;;;5033890;28;1198;-73
2021/06/16 07:17:54;;;;;;;;;;;20.50;62.80;;;;;;5034649;28;1265;-73
2021/06/16 07:20:19;;;;;;;;;;;20.50;61.40;;;;;;5034644;28;1940;-72
2021/06/16 07:22:45;;;;;;;;;;;20.50;60.90;;;;;;5033576;28;1227;-74
2021/06/16 07:25:10;;;;;;;;;;;20.50;61.20;;;;;;5015909;28;1271;-74
2021/06/16 07:27:36;;;;;;;;;;;20.50;60.60;;;;;;5028203;28;1378;-74
2021/06/16 07:30:02;;;;;;;;;;;20.50;59.80;;;;;;5038422;28;1155;-74
2021/06/16 07:32:27;;;;;;;;;;;20.50;59.70;;;;;;5032619;28;1084;-74
2021/06/16 07:34:53;;;;;;;;;;;20.50;59.90;;;;;;5033407;28;1058;-74
2021/06/16 07:37:18;;;;;;;;;;;20.50;59.90;;;;;;5058471;22;1687;-66
2021/06/16 07:39:43;;;;;;;;;;;20.60;59.70;;;;;;5057667;28;1909;-63
2021/06/16 07:42:10;;;;;;;;;;;20.60;60.20;;;;;;5055971;28;1217;-63
2021/06/16 07:44:36;;;;;;;;;;;20.60;60.50;;;;;;5048337;28;1052;-63
2021/06/16 07:47:01;;;;;;;;;;;20.60;59.80;;;;;;5054702;28;1061;-64
2021/06/16 07:49:27;;;;;;;;;;;20.60;60.30;;;;;;5052829;28;1317;-63
2021/06/16 07:51:52;;;;;;;;;;;20.60;60.50;;;;;;5054081;28;1130;-63
2021/06/16 07:54:18;;;;;;;;;;;20.60;60.10;;;;;;5053709;28;1087;-64
2021/06/16 07:56:43;;;;;;;;;;;20.60;60.10;;;;;;5053849;28;1197;-65
2021/06/16 07:59:08;;;;;;;;;;;20.60;59.90;;;;;;5057833;28;1890;-63
2021/06/16 08:01:34;;;;;;;;;;;20.60;60.20;;;;;;5060938;28;1004;-64
2021/06/16 08:03:59;;;;;;;;;;;20.60;60.30;;;;;;5053491;28;1106;-65
2021/06/16 08:06:25;;;;;;;;;;;20.60;60.30;;;;;;5053609;28;1119;-63
2021/06/16 08:08:50;;;;;;;;;;;20.60;60.30;;;;;;5052736;28;1207;-64
2021/06/16 08:11:16;;;;;;;;;;;20.60;60.40;;;;;;5053642;28;1091;-64
2021/06/16 08:13:41;;;;;;;;;;;20.60;60.70;;;;;;5052342;28;1091;-64
2021/06/16 08:16:07;;;;;;;;;;;20.60;60.50;;;;;;5040082;28;1055;-64
2021/06/16 08:18:32;;;;;;;;;;;20.70;60.50;;;;;;5053262;28;1898;-64
2021/06/16 08:20:58;;;;;;;;;;;20.60;60.80;;;;;;5052442;28;1092;-63
2021/06/16 08:23:23;;;;;;;;;;;20.70;61.00;;;;;;5051926;28;1143;-63
2021/06/16 08:25:49;;;;;;;;;;;20.70;60.80;;;;;;5053397;28;1220;-63
2021/06/16 08:28:14;;;;;;;;;;;20.70;60.30;;;;;;5053303;28;1219;-63
2021/06/16 08:30:39;;;;;;;;;;;20.70;60.60;;;;;;5053359;28;1201;-63
2021/06/16 08:33:05;;;;;;;;;;;20.70;60.70;;;;;;5052838;28;1096;-64
2021/06/16 08:35:30;;;;;;;;;;;20.70;60.90;;;;;;5052277;28;1115;-63
2021/06/16 08:37:56;;;;;;;;;;;20.70;61.10;;;;;;5053096;28;1286;-64
2021/06/16 08:40:21;;;;;;;;;;;20.70;61.00;;;;;;5035197;28;1980;-64
2021/06/16 08:42:47;;;;;;;;;;;20.70;60.20;;;;;;5053075;28;1142;-65
2021/06/16 08:45:12;;;;;;;;;;;20.70;60.30;;;;;;5051747;28;1166;-63
2021/06/16 08:47:38;;;;;;;;;;;20.70;60.80;;;;;;5052699;28;1290;-64
2021/06/16 08:50:07;;;;;;;;;;;20.70;60.90;;;;;;5052983;28;1063;-64
2021/06/16 08:52:32;;;;;;;;;;;20.70;60.90;;;;;;5049658;28;1198;-64
2021/06/16 08:55:01;;;;;;;;;;;20.70;60.90;;;;;;5051117;28;1179;-64
2021/06/16 08:57:26;;;;;;;;;;;20.70;61.00;;;;;;5051020;28;1414;-64
2021/06/16 08:59:52;;;;;;;;;;;20.70;61.00;;;;;;5052354;28;1898;-64
2021/06/16 09:02:17;;;;;;;;;;;20.70;61.00;;;;;;5051399;28;1083;-65
2021/06/16 09:04:43;;;;;;;;;;;20.70;60.90;;;;;;5051362;28;1036;-63
2021/06/16 09:07:14;;;;;;;;;;;20.80;61.10;;;;;;5051462;28;1306;-63
2021/06/16 09:09:39;;;;;;;;;;;20.70;61.10;;;;;;5051586;28;1096;-63
2021/06/16 09:12:06;;;;;;;;;;;20.70;61.10;;;;;;5052585;28;1291;-64
2021/06/16 09:14:32;;;;;;;;;;;20.70;61.40;;;;;;5054519;28;1254;-64
2021/06/16 09:17:01;;;;;;;;;;;20.70;61.40;;;;;;5053971;28;1010;-64
2021/06/16 09:19:30;;;;;;;;;;;20.70;61.20;;;;;;5052543;28;1981;-66
2021/06/16 09:22:03;;;;;;;;;;;20.80;61.50;;;;;;5055848;28;1417;-65
2021/06/16 09:24:41;;;;;;;;;;;20.70;61.30;;;;;;5053839;28;1235;-64
2021/06/16 09:27:07;;;;;;;;;;;20.70;61.60;;;;;;5052479;28;1384;-64
2021/06/16 09:29:32;;;;;;;;;;;20.80;61.30;;;;;;5051614;28;1814;-63
2021/06/16 09:32:04;;;;;;;;;;;20.80;61.10;;;;;;5052870;28;1603;-63
2021/06/16 09:34:29;;;;;;;;;;;20.80;61.40;;;;;;5052591;28;1165;-63
2021/06/16 09:36:55;;;;;;;;;;;20.80;60.90;;;;;;5051451;28;1770;-66
2021/06/16 09:39:24;;;;;;;;;;;20.80;61.30;;;;;;5052568;28;1965;-65
2021/06/16 09:41:54;;;;;;;;;;;20.90;61.60;;;;;;5052386;28;1499;-63
2021/06/16 09:44:38;;;;;;;;;;;20.80;61.40;;;;;;5048636;28;1626;-63
2021/06/16 09:47:13;;;;;;;;;;;20.80;60.90;;;;;;5059414;28;1078;-62
2021/06/16 09:49:45;;;;;;;;;;;20.80;61.40;;;;;;5051127;28;1150;-62
2021/06/16 09:52:25;;;;;;;;;;;20.90;61.60;;;;;;5050969;28;1194;-63
2021/06/16 09:54:50;;;;;;;;;;;20.80;61.80;;;;;;5052086;28;1076;-63
2021/06/16 09:57:16;;;;;;;;;;;20.90;61.10;;;;;;5051033;28;1349;-65
2021/06/16 09:59:42;;;;;;;;;;;20.90;62.00;;;;;;5054332;28;1902;-62
2021/06/16 10:02:18;;;;;;;;;;;20.90;61.80;;;;;;5051040;28;2110;-62
2021/06/16 10:04:47;;;;;;;;;;;20.90;61.20;;;;;;5050925;28;1189;-62
2021/06/16 10:07:23;;;;;;;;;;;20.90;61.60;;;;;;5052976;28;1974;-62
2021/06/16 10:09:58;;;;;;;;;;;20.90;61.40;;;;;;5054889;28;1094;-64
2021/06/16 10:12:24;;;;;;;;;;;20.90;61.70;;;;;;5048896;28;2115;-63
2021/06/16 10:14:50;;;;;;;;;;;20.90;61.70;;;;;;5048994;28;1165;-63
2021/06/16 10:17:15;;;;;;;;;;;20.90;62.60;;;;;;5053557;28;1283;-63
2021/06/16 10:19:44;;;;;;;;;;;20.90;61.80;;;;;;5054560;28;1960;-63
2021/06/16 10:22:10;;;;;;;;;;;20.90;61.60;;;;;;5054523;28;1119;-63
2021/06/16 10:24:35;;;;;;;;;;;20.90;60.70;;;;;;5055555;28;1076;-63
2021/06/16 10:27:01;;;;;;;;;;;20.90;59.80;;;;;;5054526;28;1146;-64
2021/06/16 10:29:27;;;;;;;;;;;20.90;60.30;;;;;;5054595;28;1312;-65
2021/06/16 10:31:53;;;;;;;;;;;21.00;60.00;;;;;;5054304;28;1095;-64
2021/06/16 10:34:18;;;;;;;;;;;21.00;58.20;;;;;;5034357;28;1190;-63
2021/06/16 10:37:01;;;;;;;;;;;21.00;58.20;;;;;;5046659;28;1044;-63
2021/06/16 10:39:27;;;;;;;;;;;21.00;59.70;;;;;;5055350;28;1913;-63
2021/06/16 10:41:54;;;;;;;;;;;21.00;59.60;;;;;;5054100;28;1166;-63
2021/06/16 10:44:24;;;;;;;;;;;21.00;59.50;;;;;;5054946;28;1035;-63
2021/06/16 10:46:51;;;;;;;;;;;21.00;60.30;;;;;;5053925;28;1102;-64
2021/06/16 10:49:31;;;;;;;;;;;21.00;60.80;;;;;;5055318;28;1189;-63
2021/06/16 10:52:00;;;;;;;;;;;21.00;61.10;;;;;;5055058;28;1146;-64
2021/06/16 10:54:28;;;;;;;;;;;21.00;60.30;;;;;;5053836;28;1147;-63
2021/06/16 10:57:00;;;;;;;;;;;21.00;59.10;;;;;;5049509;28;1438;-63
2021/06/16 10:59:58;;;;;;;;;;;21.00;59.80;;;;;;5045393;28;1918;-63
2021/06/16 11:02:31;;;;;;;;;;;21.00;58.90;;;;;;5010570;28;1287;-62
2021/06/16 11:05:15;;;;;;;;;;;21.00;58.10;;;;;;5054765;28;1090;-62
2021/06/16 11:07:41;;;;;;;;;;;21.10;58.20;;;;;;5054712;28;1293;-62
2021/06/16 11:10:09;;;;;;;;;;;21.10;57.10;;;;;;5053625;28;1139;-63
2021/06/16 11:12:38;;;;;;;;;;;21.10;58.00;;;;;;5054865;28;1067;-63
2021/06/16 11:15:05;;;;;;;;;;;21.10;57.50;;;;;;5054581;28;1055;-63
2021/06/16 11:17:34;;;;;;;;;;;21.10;57.70;;;;;;5054511;28;1369;-62
2021/06/16 11:20:00;;;;;;;;;;;21.10;57.70;;;;;;5054660;28;1918;-63
2021/06/16 11:22:26;;;;;;;;;;;21.20;56.70;;;;;;5054751;28;1004;-63
2021/06/16 11:25:07;;;;;;;;;;;21.20;57.10;;;;;;5054384;28;1058;-62
2021/06/16 11:27:54;;;;;;;;;;;21.20;58.70;;;;;;5054615;28;1294;-63
2021/06/16 11:30:32;;;;;;;;;;;21.10;59.50;;;;;;5054719;28;1122;-63
2021/06/16 11:33:19;;;;;;;;;;;21.10;58.90;;;;;;5054353;28;1075;-63
2021/06/16 11:35:48;;;;;;;;;;;21.10;57.90;;;;;;5054451;28;1154;-63
2021/06/16 11:38:19;;;;;;;;;;;21.20;57.50;;;;;;5054154;28;1450;-64
2021/06/16 11:40:53;;;;;;;;;;;21.20;56.90;;;;;;5054210;28;1911;-62
2021/06/16 11:43:31;;;;;;;;;;;21.20;57.30;;;;;;5054173;28;1138;-62
2021/06/16 11:45:56;;;;;;;;;;;21.20;58.30;;;;;;5054176;28;1138;-63
2021/06/16 11:48:22;;;;;;;;;;;21.20;57.90;;;;;;5054216;28;1267;-63
2021/06/16 11:50:47;;;;;;;;;;;21.20;58.10;;;;;;5054094;28;1173;-63
2021/06/16 11:53:13;;;;;;;;;;;21.20;58.20;;;;;;5052588;28;1087;-63
2021/06/16 11:55:38;;;;;;;;;;;21.20;57.90;;;;;;5052754;28;1320;-62
2021/06/16 11:58:18;;;;;;;;;;;21.20;57.90;;;;;;5046759;28;2201;-65
2021/06/16 12:00:44;;;;;;;;;;;21.20;58.80;;;;;;5048779;28;2197;-65
2021/06/16 12:03:13;;;;;;;;;;;21.20;59.60;;;;;;5052456;28;1166;-65
2021/06/16 12:05:39;;;;;;;;;;;21.10;59.70;;;;;;5053865;28;1153;-66
2021/06/16 12:08:04;;;;;;;;;;;21.10;59.60;;;;;;5053573;28;1260;-65
2021/06/16 12:10:30;;;;;;;;;;;21.10;59.40;;;;;;5055307;28;1385;-65
2021/06/16 12:13:04;;;;;;;;;;;21.20;58.70;;;;;;5052410;28;1116;-65
2021/06/16 12:15:30;;;;;;;;;;;21.20;58.60;;;;;;5054033;28;1224;-65
2021/06/16 12:18:02;;;;;;;;;;;21.10;59.40;;;;;;5056694;28;1294;-64
2021/06/16 12:20:32;;;;;;;;;;;21.10;59.50;;;;;;5059011;28;1901;-62
2021/06/16 12:22:57;;;;;;;;;;;21.10;59.80;;;;;;5051994;28;1178;-63
2021/06/16 12:25:27;;;;;;;;;;;21.10;59.50;;;;;;5053621;28;1119;-63
2021/06/16 12:27:53;;;;;;;;;;;21.10;59.80;;;;;;5053271;28;1385;-62
2021/06/16 12:30:19;;;;;;;;;;;21.10;60.00;;;;;;5052456;28;1170;-62
2021/06/16 12:32:46;;;;;;;;;;;21.10;60.00;;;;;;5052163;28;1278;-63
2021/06/16 12:35:54;;;;;;;;;;;21.10;59.80;;;;;;5051727;28;1287;-63
2021/06/16 12:38:07;;;;;;;;;;;21.10;59.80;;;;;;5044291;28;1423;-63
2021/06/16 12:40:36;;;;;;;;;;;21.10;60.70;;;;;;5053107;28;1967;-63
2021/06/16 12:43:01;;;;;;;;;;;21.10;60.40;;;;;;5043263;28;1141;-63
2021/06/16 12:45:30;;;;;;;;;;;21.10;60.10;;;;;;5050875;28;1124;-63
2021/06/16 12:47:59;;;;;;;;;;;21.10;60.00;;;;;;5052894;28;1205;-63
2021/06/16 12:50:31;;;;;;;;;;;21.10;59.90;;;;;;5051976;28;1201;-63
2021/06/16 12:52:57;;;;;;;;;;;21.10;59.50;;;;;;5052797;28;1126;-63
2021/06/16 12:55:23;;;;;;;;;;;21.10;59.20;;;;;;5051981;28;1079;-63
2021/06/16 12:57:51;;;;;;;;;;;21.10;59.50;;;;;;5051640;28;1377;-64
2021/06/16 13:00:18;;;;;;;;;;;21.10;59.60;;;;;;5049703;28;1902;-63
2021/06/16 13:02:43;;;;;;;;;;;21.10;59.80;;;;;;5052863;28;1343;-63
2021/06/16 13:05:11;;;;;;;;;;;21.10;60.00;;;;;;5052577;28;1158;-63
2021/06/16 13:07:40;;;;;;;;;;;21.10;59.60;;;;;;5052828;28;1282;-64
2021/06/16 13:10:09;;;;;;;;;;;21.10;59.40;;;;;;5051469;28;1088;-62
2021/06/16 13:12:35;;;;;;;;;;;21.10;59.40;;;;;;5052715;28;1103;-63
2021/06/16 13:15:05;;;;;;;;;;;21.10;59.30;;;;;;5051317;28;1870;-65
2021/06/16 13:17:43;;;;;;;;;;;21.10;59.80;;;;;;5043120;28;1318;-62
2021/06/16 13:20:09;;;;;;;;;;;21.10;59.40;;;;;;5044174;28;1910;-64
2021/06/16 13:22:35;;;;;;;;;;;21.20;59.30;;;;;;5052449;28;1071;-61
2021/06/16 13:25:01;;;;;;;;;;;21.20;58.50;;;;;;5052470;28;1071;-62
2021/06/16 13:27:27;;;;;;;;;;;21.20;58.80;;;;;;5052502;28;1365;-63
2021/06/16 13:29:59;;;;;;;;;;;21.20;58.60;;;;;;5052723;28;1087;-62
2021/06/16 13:32:24;;;;;;;;;;;21.20;58.90;;;;;;5052486;28;1228;-63
2021/06/16 13:34:50;;;;;;;;;;;21.20;59.20;;;;;;5056448;28;1059;-63
2021/06/16 13:37:15;;;;;;;;;;;21.20;59.00;;;;;;5055182;28;1184;-64
2021/06/16 13:39:41;;;;;;;;;;;21.20;59.10;;;;;;5058042;22;2003;-75
2021/06/16 13:42:06;;;;;;;;;;;21.20;58.80;;;;;;5034859;28;1069;-75
2021/06/16 13:44:32;;;;;;;;;;;21.20;59.80;;;;;;5069797;28;1146;-74
2021/06/16 13:46:57;;;;;;;;;;;21.20;59.70;;;;;;5071045;28;1178;-75
2021/06/16 13:49:23;;;;;;;;;;;21.20;59.70;;;;;;5037445;28;1247;-73
2021/06/16 13:51:48;;;;;;;;;;;21.20;59.60;;;;;;5032459;28;1104;-72
2021/06/16 13:54:13;;;;;;;;;;;21.20;59.10;;;;;;5016910;28;1057;-74
2021/06/16 13:56:39;;;;;;;;;;;21.20;59.20;;;;;;5015660;28;1217;-73
2021/06/16 13:59:05;;;;;;;;;;;21.20;59.40;;;;;;5016931;28;1894;-73
2021/06/16 14:01:30;;;;;;;;;;;21.20;59.00;;;;;;5017785;28;1766;-74
2021/06/16 14:03:56;;;;;;;;;;;21.20;59.40;;;;;;4999712;28;1077;-73
2021/06/16 14:06:21;;;;;;;;;;;21.20;59.80;;;;;;5016364;28;1067;-73
2021/06/16 14:08:47;;;;;;;;;;;21.20;60.10;;;;;;5015544;28;1235;-73
2021/06/16 14:11:12;;;;;;;;;;;21.20;59.80;;;;;;5015092;28;1147;-73
2021/06/16 14:13:37;;;;;;;;;;;21.20;60.10;;;;;;5016184;28;1064;-75
2021/06/16 14:16:03;;;;;;;;;;;21.20;60.60;;;;;;5015202;28;1242;-72
2021/06/16 14:18:28;;;;;;;;;;;21.20;60.70;;;;;;5014884;28;1960;-74
2021/06/16 14:20:55;;;;;;;;;;;21.20;60.80;;;;;;5010009;28;1151;-73
2021/06/16 14:23:20;;;;;;;;;;;21.20;60.80;;;;;;5020162;28;1315;-75
2021/06/16 14:25:46;;;;;;;;;;;21.20;60.40;;;;;;5035031;28;1069;-75
2021/06/16 14:28:12;;;;;;;;;;;21.20;60.50;;;;;;5018793;28;1280;-74
2021/06/16 14:30:38;;;;;;;;;;;21.20;60.90;;;;;;5017649;28;1112;-74